sensor_id;sensor_type;location;lat;lon;timestamp;P1;durP1;ratioP1;P2;durP2;ratioP2
4323;SDS011;2175;51.018;6.994;2022-09-30T00:00:57;12.30;;;8.63;;
4323;SDS011;2175;51.018;6.994;2022-09-30T00:03:22;11.03;;;8.07;;
4323;SDS011;2175;51.018;6.994;2022-09-30T00:05:55;13.80;;;8.70;;
4323;SDS011;2175;51.018;6.994;2022-09-30T00:08:22;10.23;;;8.20;;
4323;SDS011;2175;51.018;6.994;2022-09-30T00:10:56;14.60;;;8.83;;
4323;SDS011;2175;51.018;6.994;2022-09-30T00:13:27;13.73;;;8.57;;
4323;SDS011;2175;51.018;6.994;2022-09-30T00:15:53;10.07;;;7.70;;
4323;SDS011;2175;51.018;6.994;2022-09-30T00:18:18;12.17;;;8.33;;
4323;SDS011;2175;51.018;6.994;2022-09-30T00:20:44;13.77;;;8.63;;
4323;SDS011;2175;51.018;6.994;2022-09-30T00:23:09;10.80;;;8.27;;
4323;SDS011;2175;51.018;6.994;2022-09-30T00:25:35;12.30;;;7.70;;
4323;SDS011;2175;51.018;6.994;2022-09-30T00:28:00;12.30;;;8.17;;
4323;SDS011;2175;51.018;6.994;2022-09-30T00:30:26;16.20;;;8.53;;
4323;SDS011;2175;51.018;6.994;2022-09-30T00:32:51;12.03;;;8.00;;
4323;SDS011;2175;51.018;6.994;2022-09-30T00:35:17;12.47;;;8.40;;
4323;SDS011;2175;51.018;6.994;2022-09-30T00:37:42;14.93;;;9.13;;
4323;SDS011;2175;51.018;6.994;2022-09-30T00:40:08;10.43;;;8.73;;
4323;SDS011;2175;51.018;6.994;2022-09-30T00:42:38;10.23;;;8.53;;
4323;SDS011;2175;51.018;6.994;2022-09-30T00:45:05;10.30;;;7.57;;
4323;SDS011;2175;51.018;6.994;2022-09-30T00:52:42;14.27;;;8.63;;
4323;SDS011;2175;51.018;6.994;2022-09-30T00:55:14;10.37;;;7.73;;
4323;SDS011;2175;51.018;6.994;2022-09-30T00:58:09;17.63;;;7.97;;
4323;SDS011;2175;51.018;6.994;2022-09-30T01:00:37;14.23;;;8.10;;
4323;SDS011;2175;51.018;6.994;2022-09-30T01:03:03;11.80;;;7.90;;
4323;SDS011;2175;51.018;6.994;2022-09-30T01:05:31;17.03;;;7.50;;
4323;SDS011;2175;51.018;6.994;2022-09-30T01:07:57;12.83;;;8.30;;
4323;SDS011;2175;51.018;6.994;2022-09-30T01:10:25;12.50;;;8.27;;
4323;SDS011;2175;51.018;6.994;2022-09-30T01:12:51;11.00;;;6.80;;
4323;SDS011;2175;51.018;6.994;2022-09-30T01:15:17;10.73;;;7.50;;
4323;SDS011;2175;51.018;6.994;2022-09-30T01:17:52;11.93;;;8.23;;
4323;SDS011;2175;51.018;6.994;2022-09-30T01:23:47;14.00;;;7.87;;
4323;SDS011;2175;51.018;6.994;2022-09-30T01:26:42;9.07;;;7.00;;
4323;SDS011;2175;51.018;6.994;2022-09-30T01:34:58;9.97;;;7.53;;
4323;SDS011;2175;51.018;6.994;2022-09-30T01:40:27;13.10;;;7.93;;
4323;SDS011;2175;51.018;6.994;2022-09-30T01:43:06;10.97;;;8.00;;
4323;SDS011;2175;51.018;6.994;2022-09-30T01:57:26;13.23;;;7.93;;
4323;SDS011;2175;51.018;6.994;2022-09-30T02:00:01;15.43;;;8.77;;
4323;SDS011;2175;51.018;6.994;2022-09-30T02:02:32;10.37;;;7.30;;
4323;SDS011;2175;51.018;6.994;2022-09-30T02:05:19;15.43;;;7.67;;
4323;SDS011;2175;51.018;6.994;2022-09-30T02:07:59;11.70;;;7.80;;
4323;SDS011;2175;51.018;6.994;2022-09-30T02:10:41;11.13;;;8.27;;
4323;SDS011;2175;51.018;6.994;2022-09-30T02:13:18;16.90;;;8.67;;
4323;SDS011;2175;51.018;6.994;2022-09-30T02:15:55;12.30;;;8.03;;
4323;SDS011;2175;51.018;6.994;2022-09-30T02:18:26;11.53;;;7.73;;
4323;SDS011;2175;51.018;6.994;2022-09-30T02:20:58;11.40;;;7.30;;
4323;SDS011;2175;51.018;6.994;2022-09-30T02:23:31;10.80;;;7.50;;
4323;SDS011;2175;51.018;6.994;2022-09-30T02:28:29;12.70;;;7.83;;
4323;SDS011;2175;51.018;6.994;2022-09-30T02:30:57;11.63;;;8.40;;
4323;SDS011;2175;51.018;6.994;2022-09-30T02:33:33;13.97;;;8.17;;
4323;SDS011;2175;51.018;6.994;2022-09-30T02:36:06;14.90;;;8.37;;
4323;SDS011;2175;51.018;6.994;2022-09-30T02:38:44;9.50;;;7.30;;
4323;SDS011;2175;51.018;6.994;2022-09-30T02:41:16;10.70;;;7.50;;
4323;SDS011;2175;51.018;6.994;2022-09-30T02:43:47;12.93;;;7.97;;
4323;SDS011;2175;51.018;6.994;2022-09-30T02:46:24;13.97;;;8.57;;
4323;SDS011;2175;51.018;6.994;2022-09-30T02:54:38;10.73;;;7.87;;
4323;SDS011;2175;51.018;6.994;2022-09-30T02:59:44;11.57;;;7.60;;
4323;SDS011;2175;51.018;6.994;2022-09-30T03:02:15;11.20;;;8.30;;
4323;SDS011;2175;51.018;6.994;2022-09-30T03:04:41;10.57;;;7.37;;
4323;SDS011;2175;51.018;6.994;2022-09-30T03:07:08;12.10;;;8.03;;
4323;SDS011;2175;51.018;6.994;2022-09-30T03:09:35;9.73;;;7.40;;
4323;SDS011;2175;51.018;6.994;2022-09-30T03:15:03;10.10;;;7.97;;
4323;SDS011;2175;51.018;6.994;2022-09-30T03:20:29;12.37;;;8.30;;
4323;SDS011;2175;51.018;6.994;2022-09-30T03:32:17;10.47;;;7.60;;
4323;SDS011;2175;51.018;6.994;2022-09-30T03:35:28;12.47;;;7.63;;
4323;SDS011;2175;51.018;6.994;2022-09-30T03:37:55;14.60;;;8.20;;
4323;SDS011;2175;51.018;6.994;2022-09-30T03:40:55;10.57;;;7.53;;
4323;SDS011;2175;51.018;6.994;2022-09-30T03:43:37;11.37;;;7.27;;
4323;SDS011;2175;51.018;6.994;2022-09-30T03:46:19;10.63;;;7.50;;
4323;SDS011;2175;51.018;6.994;2022-09-30T03:48:53;9.93;;;6.57;;
4323;SDS011;2175;51.018;6.994;2022-09-30T03:51:25;13.20;;;7.97;;
4323;SDS011;2175;51.018;6.994;2022-09-30T03:53:53;11.87;;;7.07;;
4323;SDS011;2175;51.018;6.994;2022-09-30T03:56:26;9.43;;;7.33;;
4323;SDS011;2175;51.018;6.994;2022-09-30T03:58:53;9.53;;;7.03;;
4323;SDS011;2175;51.018;6.994;2022-09-30T04:01:20;10.60;;;6.67;;
4323;SDS011;2175;51.018;6.994;2022-09-30T04:03:50;12.20;;;7.00;;
4323;SDS011;2175;51.018;6.994;2022-09-30T04:06:18;10.73;;;7.33;;
4323;SDS011;2175;51.018;6.994;2022-09-30T04:08:45;10.27;;;7.47;;
4323;SDS011;2175;51.018;6.994;2022-09-30T04:11:11;11.37;;;8.40;;
4323;SDS011;2175;51.018;6.994;2022-09-30T04:13:37;10.43;;;6.87;;
4323;SDS011;2175;51.018;6.994;2022-09-30T04:16:03;10.87;;;7.10;;
4323;SDS011;2175;51.018;6.994;2022-09-30T04:18:29;11.50;;;6.83;;
4323;SDS011;2175;51.018;6.994;2022-09-30T04:20:55;9.87;;;7.17;;
4323;SDS011;2175;51.018;6.994;2022-09-30T04:23:22;12.07;;;6.90;;
4323;SDS011;2175;51.018;6.994;2022-09-30T04:25:51;17.93;;;7.93;;
4323;SDS011;2175;51.018;6.994;2022-09-30T04:28:18;10.60;;;7.33;;
4323;SDS011;2175;51.018;6.994;2022-09-30T04:30:43;11.00;;;7.10;;
4323;SDS011;2175;51.018;6.994;2022-09-30T04:33:09;10.47;;;7.77;;
4323;SDS011;2175;51.018;6.994;2022-09-30T04:35:36;11.20;;;7.33;;
4323;SDS011;2175;51.018;6.994;2022-09-30T04:38:03;11.13;;;7.10;;
4323;SDS011;2175;51.018;6.994;2022-09-30T04:40:31;11.93;;;6.53;;
4323;SDS011;2175;51.018;6.994;2022-09-30T04:42:59;10.97;;;7.60;;
4323;SDS011;2175;51.018;6.994;2022-09-30T04:45:25;10.97;;;7.40;;
4323;SDS011;2175;51.018;6.994;2022-09-30T04:47:50;14.30;;;7.50;;
4323;SDS011;2175;51.018;6.994;2022-09-30T04:50:16;18.83;;;7.27;;
4323;SDS011;2175;51.018;6.994;2022-09-30T04:52:42;12.27;;;6.43;;
4323;SDS011;2175;51.018;6.994;2022-09-30T04:55:08;10.47;;;7.80;;
4323;SDS011;2175;51.018;6.994;2022-09-30T04:57:35;10.30;;;6.43;;
4323;SDS011;2175;51.018;6.994;2022-09-30T05:00:00;8.83;;;7.13;;
4323;SDS011;2175;51.018;6.994;2022-09-30T05:02:26;7.50;;;6.00;;
4323;SDS011;2175;51.018;6.994;2022-09-30T05:04:52;8.97;;;6.70;;
4323;SDS011;2175;51.018;6.994;2022-09-30T05:07:19;8.97;;;6.80;;
4323;SDS011;2175;51.018;6.994;2022-09-30T05:09:45;10.53;;;7.00;;
4323;SDS011;2175;51.018;6.994;2022-09-30T05:12:10;10.70;;;7.83;;
4323;SDS011;2175;51.018;6.994;2022-09-30T05:14:36;10.03;;;6.60;;
4323;SDS011;2175;51.018;6.994;2022-09-30T05:17:02;11.07;;;7.67;;
4323;SDS011;2175;51.018;6.994;2022-09-30T05:19:28;12.87;;;7.60;;
4323;SDS011;2175;51.018;6.994;2022-09-30T05:21:54;14.43;;;7.50;;
4323;SDS011;2175;51.018;6.994;2022-09-30T05:24:21;9.27;;;7.10;;
4323;SDS011;2175;51.018;6.994;2022-09-30T05:26:46;14.07;;;7.87;;
4323;SDS011;2175;51.018;6.994;2022-09-30T05:29:12;12.17;;;7.23;;
4323;SDS011;2175;51.018;6.994;2022-09-30T05:31:37;13.53;;;7.07;;
4323;SDS011;2175;51.018;6.994;2022-09-30T05:34:03;9.90;;;7.00;;
4323;SDS011;2175;51.018;6.994;2022-09-30T05:36:29;12.50;;;7.53;;
4323;SDS011;2175;51.018;6.994;2022-09-30T05:38:54;12.23;;;6.50;;
4323;SDS011;2175;51.018;6.994;2022-09-30T05:41:20;13.53;;;7.77;;
4323;SDS011;2175;51.018;6.994;2022-09-30T05:43:46;9.90;;;7.30;;
4323;SDS011;2175;51.018;6.994;2022-09-30T05:46:14;13.17;;;7.70;;
4323;SDS011;2175;51.018;6.994;2022-09-30T05:48:40;9.97;;;6.63;;
4323;SDS011;2175;51.018;6.994;2022-09-30T05:51:05;12.60;;;7.30;;
4323;SDS011;2175;51.018;6.994;2022-09-30T05:53:31;14.67;;;6.97;;
4323;SDS011;2175;51.018;6.994;2022-09-30T05:55:59;13.63;;;7.43;;
4323;SDS011;2175;51.018;6.994;2022-09-30T05:58:24;12.40;;;6.67;;
4323;SDS011;2175;51.018;6.994;2022-09-30T06:00:51;14.97;;;7.50;;
4323;SDS011;2175;51.018;6.994;2022-09-30T06:03:17;11.90;;;7.37;;
4323;SDS011;2175;51.018;6.994;2022-09-30T06:05:43;11.80;;;7.53;;
4323;SDS011;2175;51.018;6.994;2022-09-30T06:08:10;12.80;;;7.13;;
4323;SDS011;2175;51.018;6.994;2022-09-30T06:10:38;11.80;;;7.60;;
4323;SDS011;2175;51.018;6.994;2022-09-30T06:13:08;12.97;;;7.63;;
4323;SDS011;2175;51.018;6.994;2022-09-30T06:15:33;10.00;;;7.83;;
4323;SDS011;2175;51.018;6.994;2022-09-30T06:18:02;13.30;;;7.50;;
4323;SDS011;2175;51.018;6.994;2022-09-30T06:20:27;10.70;;;7.50;;
4323;SDS011;2175;51.018;6.994;2022-09-30T06:22:53;10.67;;;7.83;;
4323;SDS011;2175;51.018;6.994;2022-09-30T06:25:18;11.50;;;7.43;;
4323;SDS011;2175;51.018;6.994;2022-09-30T06:27:46;10.70;;;7.40;;
4323;SDS011;2175;51.018;6.994;2022-09-30T06:30:12;9.30;;;7.33;;
4323;SDS011;2175;51.018;6.994;2022-09-30T06:32:38;10.73;;;7.93;;
4323;SDS011;2175;51.018;6.994;2022-09-30T06:35:04;11.63;;;7.17;;
4323;SDS011;2175;51.018;6.994;2022-09-30T06:37:30;10.70;;;7.63;;
4323;SDS011;2175;51.018;6.994;2022-09-30T06:39:55;10.50;;;8.20;;
4323;SDS011;2175;51.018;6.994;2022-09-30T06:42:21;9.67;;;7.80;;
4323;SDS011;2175;51.018;6.994;2022-09-30T06:44:49;12.83;;;8.80;;
4323;SDS011;2175;51.018;6.994;2022-09-30T06:47:15;12.53;;;8.23;;
4323;SDS011;2175;51.018;6.994;2022-09-30T06:49:41;11.53;;;8.03;;
4323;SDS011;2175;51.018;6.994;2022-09-30T06:52:10;13.77;;;9.23;;
4323;SDS011;2175;51.018;6.994;2022-09-30T06:54:39;12.50;;;7.80;;
4323;SDS011;2175;51.018;6.994;2022-09-30T06:57:07;14.93;;;8.53;;
4323;SDS011;2175;51.018;6.994;2022-09-30T06:59:33;9.37;;;7.67;;
4323;SDS011;2175;51.018;6.994;2022-09-30T07:01:59;10.30;;;8.27;;
4323;SDS011;2175;51.018;6.994;2022-09-30T07:04:24;12.30;;;8.70;;
4323;SDS011;2175;51.018;6.994;2022-09-30T07:06:50;14.40;;;8.70;;
4323;SDS011;2175;51.018;6.994;2022-09-30T07:09:18;16.30;;;8.07;;
4323;SDS011;2175;51.018;6.994;2022-09-30T07:11:44;11.17;;;8.27;;
4323;SDS011;2175;51.018;6.994;2022-09-30T07:14:09;11.60;;;8.43;;
4323;SDS011;2175;51.018;6.994;2022-09-30T07:16:37;10.50;;;8.17;;
4323;SDS011;2175;51.018;6.994;2022-09-30T07:19:03;12.27;;;9.17;;
4323;SDS011;2175;51.018;6.994;2022-09-30T07:21:30;11.43;;;8.73;;
4323;SDS011;2175;51.018;6.994;2022-09-30T07:23:57;12.13;;;8.50;;
4323;SDS011;2175;51.018;6.994;2022-09-30T07:26:23;12.57;;;9.33;;
4323;SDS011;2175;51.018;6.994;2022-09-30T07:28:50;16.03;;;9.80;;
4323;SDS011;2175;51.018;6.994;2022-09-30T07:31:17;14.37;;;9.67;;
4323;SDS011;2175;51.018;6.994;2022-09-30T07:33:46;11.80;;;8.50;;
4323;SDS011;2175;51.018;6.994;2022-09-30T07:36:12;18.30;;;9.27;;
4323;SDS011;2175;51.018;6.994;2022-09-30T07:38:41;13.23;;;8.70;;
4323;SDS011;2175;51.018;6.994;2022-09-30T07:43:44;12.83;;;9.60;;
4323;SDS011;2175;51.018;6.994;2022-09-30T07:48:48;15.93;;;9.23;;
4323;SDS011;2175;51.018;6.994;2022-09-30T07:51:20;15.03;;;10.37;;
4323;SDS011;2175;51.018;6.994;2022-09-30T07:54:03;12.30;;;9.87;;
4323;SDS011;2175;51.018;6.994;2022-09-30T07:56:30;12.73;;;9.57;;
4323;SDS011;2175;51.018;6.994;2022-09-30T07:58:58;13.20;;;9.53;;
4323;SDS011;2175;51.018;6.994;2022-09-30T08:01:25;16.27;;;10.27;;
4323;SDS011;2175;51.018;6.994;2022-09-30T08:03:53;13.53;;;9.57;;
4323;SDS011;2175;51.018;6.994;2022-09-30T08:06:20;17.20;;;9.50;;
4323;SDS011;2175;51.018;6.994;2022-09-30T08:08:46;14.13;;;8.90;;
4323;SDS011;2175;51.018;6.994;2022-09-30T08:11:16;11.53;;;9.20;;
4323;SDS011;2175;51.018;6.994;2022-09-30T08:13:41;11.10;;;7.90;;
4323;SDS011;2175;51.018;6.994;2022-09-30T08:16:07;13.57;;;8.87;;
4323;SDS011;2175;51.018;6.994;2022-09-30T08:18:33;11.60;;;8.33;;
4323;SDS011;2175;51.018;6.994;2022-09-30T08:21:03;13.37;;;8.37;;
4323;SDS011;2175;51.018;6.994;2022-09-30T08:23:30;10.47;;;8.33;;
4323;SDS011;2175;51.018;6.994;2022-09-30T08:26:15;16.57;;;8.13;;
4323;SDS011;2175;51.018;6.994;2022-09-30T08:28:41;10.03;;;8.20;;
4323;SDS011;2175;51.018;6.994;2022-09-30T08:31:12;9.77;;;7.13;;
4323;SDS011;2175;51.018;6.994;2022-09-30T08:33:42;10.33;;;6.80;;
4323;SDS011;2175;51.018;6.994;2022-09-30T08:36:13;7.87;;;6.90;;
4323;SDS011;2175;51.018;6.994;2022-09-30T08:38:40;11.10;;;7.20;;
4323;SDS011;2175;51.018;6.994;2022-09-30T08:43:51;11.00;;;6.87;;
4323;SDS011;2175;51.018;6.994;2022-09-30T08:52:41;9.13;;;5.93;;
4323;SDS011;2175;51.018;6.994;2022-09-30T08:55:23;8.33;;;6.30;;
4323;SDS011;2175;51.018;6.994;2022-09-30T08:57:54;9.33;;;5.80;;
4323;SDS011;2175;51.018;6.994;2022-09-30T09:00:20;8.50;;;6.00;;
4323;SDS011;2175;51.018;6.994;2022-09-30T09:08:02;8.30;;;6.17;;
4323;SDS011;2175;51.018;6.994;2022-09-30T09:10:57;12.50;;;6.53;;
4323;SDS011;2175;51.018;6.994;2022-09-30T09:14:00;9.03;;;6.40;;
4323;SDS011;2175;51.018;6.994;2022-09-30T09:19:46;11.67;;;6.10;;
4323;SDS011;2175;51.018;6.994;2022-09-30T09:22:14;12.40;;;5.90;;
4323;SDS011;2175;51.018;6.994;2022-09-30T09:24:41;9.20;;;5.63;;
4323;SDS011;2175;51.018;6.994;2022-09-30T09:27:16;15.13;;;6.20;;
4323;SDS011;2175;51.018;6.994;2022-09-30T09:30:09;7.77;;;5.20;;
4323;SDS011;2175;51.018;6.994;2022-09-30T09:32:41;7.70;;;5.53;;
4323;SDS011;2175;51.018;6.994;2022-09-30T09:35:15;9.93;;;6.00;;
4323;SDS011;2175;51.018;6.994;2022-09-30T09:37:54;7.93;;;6.37;;
4323;SDS011;2175;51.018;6.994;2022-09-30T09:44:10;7.47;;;5.60;;
4323;SDS011;2175;51.018;6.994;2022-09-30T09:46:29;7.57;;;5.77;;
4323;SDS011;2175;51.018;6.994;2022-09-30T09:51:38;8.23;;;6.00;;
4323;SDS011;2175;51.018;6.994;2022-09-30T09:54:27;8.63;;;6.33;;
4323;SDS011;2175;51.018;6.994;2022-09-30T09:56:55;9.20;;;5.30;;
4323;SDS011;2175;51.018;6.994;2022-09-30T09:59:28;7.23;;;5.67;;
4323;SDS011;2175;51.018;6.994;2022-09-30T10:01:55;9.23;;;5.83;;
4323;SDS011;2175;51.018;6.994;2022-09-30T10:06:52;11.37;;;6.23;;
4323;SDS011;2175;51.018;6.994;2022-09-30T10:09:25;8.60;;;5.67;;
4323;SDS011;2175;51.018;6.994;2022-09-30T10:14:31;10.83;;;6.63;;
4323;SDS011;2175;51.018;6.994;2022-09-30T10:17:16;8.00;;;6.07;;
4323;SDS011;2175;51.018;6.994;2022-09-30T10:19:48;10.10;;;6.47;;
4323;SDS011;2175;51.018;6.994;2022-09-30T10:24:41;9.83;;;6.47;;
4323;SDS011;2175;51.018;6.994;2022-09-30T10:30:13;8.53;;;6.23;;
4323;SDS011;2175;51.018;6.994;2022-09-30T10:33:13;8.53;;;5.60;;
4323;SDS011;2175;51.018;6.994;2022-09-30T10:38:21;10.33;;;6.57;;
4323;SDS011;2175;51.018;6.994;2022-09-30T10:40:48;9.87;;;6.10;;
4323;SDS011;2175;51.018;6.994;2022-09-30T10:43:26;9.53;;;6.63;;
4323;SDS011;2175;51.018;6.994;2022-09-30T10:45:53;9.60;;;6.90;;
4323;SDS011;2175;51.018;6.994;2022-09-30T10:48:19;9.20;;;6.30;;
4323;SDS011;2175;51.018;6.994;2022-09-30T10:50:48;10.77;;;6.83;;
4323;SDS011;2175;51.018;6.994;2022-09-30T10:53:18;9.13;;;6.97;;
4323;SDS011;2175;51.018;6.994;2022-09-30T10:55:47;12.00;;;5.97;;
4323;SDS011;2175;51.018;6.994;2022-09-30T11:03:51;10.37;;;6.00;;
4323;SDS011;2175;51.018;6.994;2022-09-30T11:06:25;11.73;;;5.07;;
4323;SDS011;2175;51.018;6.994;2022-09-30T11:08:56;11.90;;;5.13;;
4323;SDS011;2175;51.018;6.994;2022-09-30T11:11:37;8.17;;;5.47;;
4323;SDS011;2175;51.018;6.994;2022-09-30T11:19:31;14.77;;;5.33;;
4323;SDS011;2175;51.018;6.994;2022-09-30T11:24:53;10.27;;;6.20;;
4323;SDS011;2175;51.018;6.994;2022-09-30T11:27:34;10.90;;;6.60;;
4323;SDS011;2175;51.018;6.994;2022-09-30T11:30:29;9.87;;;6.67;;
4323;SDS011;2175;51.018;6.994;2022-09-30T11:33:11;12.73;;;6.87;;
4323;SDS011;2175;51.018;6.994;2022-09-30T11:44:02;9.00;;;6.47;;
4323;SDS011;2175;51.018;6.994;2022-09-30T11:49:32;13.23;;;6.90;;
4323;SDS011;2175;51.018;6.994;2022-09-30T12:00:23;12.13;;;5.00;;
4323;SDS011;2175;51.018;6.994;2022-09-30T12:05:27;6.30;;;5.00;;
4323;SDS011;2175;51.018;6.994;2022-09-30T12:11:06;6.30;;;4.93;;
4323;SDS011;2175;51.018;6.994;2022-09-30T12:13:40;14.43;;;5.17;;
4323;SDS011;2175;51.018;6.994;2022-09-30T12:16:20;9.63;;;4.50;;
4323;SDS011;2175;51.018;6.994;2022-09-30T12:18:50;13.77;;;5.27;;
4323;SDS011;2175;51.018;6.994;2022-09-30T12:21:22;7.60;;;4.07;;
4323;SDS011;2175;51.018;6.994;2022-09-30T12:26:53;6.10;;;4.03;;
4323;SDS011;2175;51.018;6.994;2022-09-30T12:29:21;7.87;;;4.00;;
4323;SDS011;2175;51.018;6.994;2022-09-30T12:32:13;5.87;;;3.87;;
4323;SDS011;2175;51.018;6.994;2022-09-30T12:48:41;6.83;;;3.40;;
4323;SDS011;2175;51.018;6.994;2022-09-30T12:51:21;5.30;;;3.17;;
4323;SDS011;2175;51.018;6.994;2022-09-30T12:53:59;4.50;;;3.30;;
4323;SDS011;2175;51.018;6.994;2022-09-30T12:56:29;5.50;;;3.70;;
4323;SDS011;2175;51.018;6.994;2022-09-30T12:58:57;6.97;;;3.77;;
4323;SDS011;2175;51.018;6.994;2022-09-30T13:12:14;6.97;;;3.43;;
4323;SDS011;2175;51.018;6.994;2022-09-30T13:14:40;4.40;;;2.93;;
4323;SDS011;2175;51.018;6.994;2022-09-30T13:22:39;5.67;;;2.50;;
4323;SDS011;2175;51.018;6.994;2022-09-30T13:27:32;5.13;;;2.43;;
4323;SDS011;2175;51.018;6.994;2022-09-30T13:32:37;5.10;;;2.13;;
4323;SDS011;2175;51.018;6.994;2022-09-30T13:40:54;3.10;;;2.00;;
4323;SDS011;2175;51.018;6.994;2022-09-30T13:43:29;3.00;;;2.10;;
4323;SDS011;2175;51.018;6.994;2022-09-30T13:46:52;3.37;;;1.90;;
4323;SDS011;2175;51.018;6.994;2022-09-30T13:49:04;4.00;;;2.10;;
4323;SDS011;2175;51.018;6.994;2022-09-30T13:51:42;6.73;;;2.60;;
4323;SDS011;2175;51.018;6.994;2022-09-30T13:54:29;6.00;;;2.20;;
4323;SDS011;2175;51.018;6.994;2022-09-30T13:57:04;3.37;;;2.07;;
4323;SDS011;2175;51.018;6.994;2022-09-30T14:02:22;6.27;;;1.80;;
4323;SDS011;2175;51.018;6.994;2022-09-30T14:08:08;4.50;;;2.03;;
4323;SDS011;2175;51.018;6.994;2022-09-30T14:16:36;7.43;;;1.60;;
4323;SDS011;2175;51.018;6.994;2022-09-30T14:22:07;4.97;;;2.50;;
4323;SDS011;2175;51.018;6.994;2022-09-30T14:24:35;6.10;;;1.97;;
4323;SDS011;2175;51.018;6.994;2022-09-30T14:35:14;4.60;;;2.10;;
4323;SDS011;2175;51.018;6.994;2022-09-30T14:37:58;5.83;;;1.90;;
4323;SDS011;2175;51.018;6.994;2022-09-30T14:40:37;4.93;;;2.80;;
4323;SDS011;2175;51.018;6.994;2022-09-30T14:43:07;2.87;;;2.07;;
4323;SDS011;2175;51.018;6.994;2022-09-30T14:45:39;2.40;;;1.70;;
4323;SDS011;2175;51.018;6.994;2022-09-30T14:48:13;6.70;;;2.00;;
4323;SDS011;2175;51.018;6.994;2022-09-30T14:50:46;3.03;;;1.63;;
4323;SDS011;2175;51.018;6.994;2022-09-30T14:53:28;7.00;;;1.70;;
4323;SDS011;2175;51.018;6.994;2022-09-30T14:55:53;2.63;;;1.73;;
4323;SDS011;2175;51.018;6.994;2022-09-30T14:58:20;3.90;;;2.20;;
4323;SDS011;2175;51.018;6.994;2022-09-30T15:01:07;2.00;;;1.63;;
4323;SDS011;2175;51.018;6.994;2022-09-30T15:03:41;4.00;;;2.20;;
4323;SDS011;2175;51.018;6.994;2022-09-30T15:06:19;2.93;;;1.90;;
4323;SDS011;2175;51.018;6.994;2022-09-30T15:08:48;3.33;;;1.87;;
4323;SDS011;2175;51.018;6.994;2022-09-30T15:11:16;2.40;;;1.80;;
4323;SDS011;2175;51.018;6.994;2022-09-30T15:13:46;3.30;;;2.10;;
4323;SDS011;2175;51.018;6.994;2022-09-30T15:16:25;3.93;;;2.53;;
4323;SDS011;2175;51.018;6.994;2022-09-30T15:18:54;4.43;;;2.20;;
4323;SDS011;2175;51.018;6.994;2022-09-30T15:21:21;7.40;;;2.57;;
4323;SDS011;2175;51.018;6.994;2022-09-30T15:23:49;4.40;;;2.33;;
4323;SDS011;2175;51.018;6.994;2022-09-30T15:26:17;3.40;;;2.20;;
4323;SDS011;2175;51.018;6.994;2022-09-30T15:28:45;3.33;;;1.90;;
4323;SDS011;2175;51.018;6.994;2022-09-30T15:31:27;3.30;;;1.90;;
4323;SDS011;2175;51.018;6.994;2022-09-30T15:34:01;4.83;;;2.07;;
4323;SDS011;2175;51.018;6.994;2022-09-30T15:36:41;3.73;;;1.83;;
4323;SDS011;2175;51.018;6.994;2022-09-30T15:39:21;3.10;;;2.20;;
4323;SDS011;2175;51.018;6.994;2022-09-30T15:42:10;5.57;;;2.03;;
4323;SDS011;2175;51.018;6.994;2022-09-30T15:44:37;3.03;;;1.70;;
4323;SDS011;2175;51.018;6.994;2022-09-30T15:47:04;3.43;;;2.20;;
4323;SDS011;2175;51.018;6.994;2022-09-30T15:55:01;8.00;;;1.90;;
4323;SDS011;2175;51.018;6.994;2022-09-30T15:57:48;4.73;;;2.10;;
4323;SDS011;2175;51.018;6.994;2022-09-30T16:00:31;2.93;;;2.00;;
4323;SDS011;2175;51.018;6.994;2022-09-30T16:03:22;2.07;;;1.80;;
4323;SDS011;2175;51.018;6.994;2022-09-30T16:05:51;2.90;;;2.07;;
4323;SDS011;2175;51.018;6.994;2022-09-30T16:08:22;5.40;;;2.10;;
4323;SDS011;2175;51.018;6.994;2022-09-30T16:10:53;3.97;;;2.10;;
4323;SDS011;2175;51.018;6.994;2022-09-30T16:13:21;2.40;;;1.67;;
4323;SDS011;2175;51.018;6.994;2022-09-30T16:15:54;2.17;;;1.50;;
4323;SDS011;2175;51.018;6.994;2022-09-30T16:18:25;3.50;;;2.20;;
4323;SDS011;2175;51.018;6.994;2022-09-30T16:21:00;2.30;;;1.57;;
4323;SDS011;2175;51.018;6.994;2022-09-30T16:23:28;3.10;;;1.90;;
4323;SDS011;2175;51.018;6.994;2022-09-30T16:28:39;2.50;;;1.80;;
4323;SDS011;2175;51.018;6.994;2022-09-30T16:31:06;6.77;;;1.73;;
4323;SDS011;2175;51.018;6.994;2022-09-30T16:33:33;3.37;;;1.80;;
4323;SDS011;2175;51.018;6.994;2022-09-30T16:36:02;2.90;;;1.70;;
4323;SDS011;2175;51.018;6.994;2022-09-30T16:38:28;3.00;;;1.80;;
4323;SDS011;2175;51.018;6.994;2022-09-30T16:40:54;3.70;;;1.90;;
4323;SDS011;2175;51.018;6.994;2022-09-30T16:43:20;2.67;;;1.70;;
4323;SDS011;2175;51.018;6.994;2022-09-30T16:45:46;4.60;;;2.10;;
4323;SDS011;2175;51.018;6.994;2022-09-30T16:48:15;2.97;;;1.70;;
4323;SDS011;2175;51.018;6.994;2022-09-30T16:50:47;2.53;;;1.90;;
4323;SDS011;2175;51.018;6.994;2022-09-30T16:53:29;3.90;;;1.70;;
4323;SDS011;2175;51.018;6.994;2022-09-30T16:55:54;4.67;;;2.07;;
4323;SDS011;2175;51.018;6.994;2022-09-30T16:58:20;3.10;;;1.97;;
4323;SDS011;2175;51.018;6.994;2022-09-30T17:00:46;2.70;;;1.83;;
4323;SDS011;2175;51.018;6.994;2022-09-30T17:03:13;3.13;;;2.10;;
4323;SDS011;2175;51.018;6.994;2022-09-30T17:05:40;3.73;;;2.00;;
4323;SDS011;2175;51.018;6.994;2022-09-30T17:08:08;3.10;;;2.10;;
4323;SDS011;2175;51.018;6.994;2022-09-30T17:10:40;2.80;;;1.97;;
4323;SDS011;2175;51.018;6.994;2022-09-30T17:13:07;3.67;;;2.20;;
4323;SDS011;2175;51.018;6.994;2022-09-30T17:15:33;3.80;;;2.27;;
4323;SDS011;2175;51.018;6.994;2022-09-30T17:18:03;4.20;;;2.20;;
4323;SDS011;2175;51.018;6.994;2022-09-30T17:20:31;4.13;;;2.50;;
4323;SDS011;2175;51.018;6.994;2022-09-30T17:22:57;5.00;;;2.10;;
4323;SDS011;2175;51.018;6.994;2022-09-30T17:25:23;3.13;;;2.27;;
4323;SDS011;2175;51.018;6.994;2022-09-30T17:27:49;3.77;;;2.33;;
4323;SDS011;2175;51.018;6.994;2022-09-30T17:30:14;4.97;;;2.20;;
4323;SDS011;2175;51.018;6.994;2022-09-30T17:32:40;4.93;;;2.47;;
4323;SDS011;2175;51.018;6.994;2022-09-30T17:35:06;6.50;;;2.43;;
4323;SDS011;2175;51.018;6.994;2022-09-30T17:37:33;3.57;;;2.20;;
4323;SDS011;2175;51.018;6.994;2022-09-30T17:39:59;5.30;;;2.40;;
4323;SDS011;2175;51.018;6.994;2022-09-30T17:42:25;4.50;;;2.70;;
4323;SDS011;2175;51.018;6.994;2022-09-30T17:45:09;5.60;;;2.70;;
4323;SDS011;2175;51.018;6.994;2022-09-30T17:47:35;3.60;;;2.43;;
4323;SDS011;2175;51.018;6.994;2022-09-30T17:50:05;4.43;;;2.57;;
4323;SDS011;2175;51.018;6.994;2022-09-30T17:52:31;3.90;;;2.70;;
4323;SDS011;2175;51.018;6.994;2022-09-30T17:54:58;4.23;;;2.40;;
4323;SDS011;2175;51.018;6.994;2022-09-30T17:57:25;8.43;;;2.93;;
4323;SDS011;2175;51.018;6.994;2022-09-30T17:59:50;6.47;;;2.90;;
4323;SDS011;2175;51.018;6.994;2022-09-30T18:02:16;4.07;;;2.70;;
4323;SDS011;2175;51.018;6.994;2022-09-30T18:04:42;3.63;;;2.50;;
4323;SDS011;2175;51.018;6.994;2022-09-30T18:07:08;4.27;;;2.80;;
4323;SDS011;2175;51.018;6.994;2022-09-30T18:09:35;4.07;;;2.73;;
4323;SDS011;2175;51.018;6.994;2022-09-30T18:12:05;4.10;;;2.20;;
4323;SDS011;2175;51.018;6.994;2022-09-30T18:14:31;4.97;;;2.67;;
4323;SDS011;2175;51.018;6.994;2022-09-30T18:17:00;5.10;;;2.70;;
4323;SDS011;2175;51.018;6.994;2022-09-30T18:19:26;5.73;;;3.00;;
4323;SDS011;2175;51.018;6.994;2022-09-30T18:21:52;4.40;;;2.70;;
4323;SDS011;2175;51.018;6.994;2022-09-30T18:24:18;5.87;;;3.10;;
4323;SDS011;2175;51.018;6.994;2022-09-30T18:27:04;9.10;;;3.20;;
4323;SDS011;2175;51.018;6.994;2022-09-30T18:29:29;8.20;;;3.07;;
4323;SDS011;2175;51.018;6.994;2022-09-30T18:31:55;5.13;;;3.27;;
4323;SDS011;2175;51.018;6.994;2022-09-30T18:34:21;5.03;;;3.20;;
4323;SDS011;2175;51.018;6.994;2022-09-30T18:36:47;6.00;;;3.67;;
4323;SDS011;2175;51.018;6.994;2022-09-30T18:39:13;6.20;;;3.90;;
4323;SDS011;2175;51.018;6.994;2022-09-30T18:41:39;9.70;;;4.60;;
4323;SDS011;2175;51.018;6.994;2022-09-30T18:44:07;7.73;;;4.10;;
4323;SDS011;2175;51.018;6.994;2022-09-30T18:46:34;4.30;;;3.00;;
4323;SDS011;2175;51.018;6.994;2022-09-30T18:49:01;5.33;;;2.80;;
4323;SDS011;2175;51.018;6.994;2022-09-30T18:51:27;9.60;;;2.80;;
4323;SDS011;2175;51.018;6.994;2022-09-30T18:53:57;7.00;;;3.53;;
4323;SDS011;2175;51.018;6.994;2022-09-30T18:56:24;4.80;;;2.80;;
4323;SDS011;2175;51.018;6.994;2022-09-30T18:58:56;10.53;;;3.30;;